sensor_id;sensor_type;location;lat;lon;timestamp;P1;durP1;ratioP1;P2;durP2;ratioP2
64903;SDS011;51401;48.882;12.598;2023-12-20T00:00:34;13.37;;;10.53;;
64903;SDS011;51401;48.882;12.598;2023-12-20T00:02:59;15.20;;;10.98;;
64903;SDS011;51401;48.882;12.598;2023-12-20T00:05:25;14.00;;;10.77;;
64903;SDS011;51401;48.882;12.598;2023-12-20T00:07:50;13.80;;;10.30;;
64903;SDS011;51401;48.882;12.598;2023-12-20T00:10:15;13.35;;;10.27;;
64903;SDS011;51401;48.882;12.598;2023-12-20T00:12:41;13.23;;;9.88;;
64903;SDS011;51401;48.882;12.598;2023-12-20T00:15:06;12.35;;;9.73;;
64903;SDS011;51401;48.882;12.598;2023-12-20T00:17:32;11.30;;;9.40;;
64903;SDS011;51401;48.882;12.598;2023-12-20T00:19:57;13.93;;;9.38;;
64903;SDS011;51401;48.882;12.598;2023-12-20T00:22:22;12.68;;;9.93;;
64903;SDS011;51401;48.882;12.598;2023-12-20T00:24:47;13.27;;;9.60;;
64903;SDS011;51401;48.882;12.598;2023-12-20T00:27:13;11.70;;;9.00;;
64903;SDS011;51401;48.882;12.598;2023-12-20T00:29:38;11.73;;;10.02;;
64903;SDS011;51401;48.882;12.598;2023-12-20T00:32:03;14.77;;;10.52;;
64903;SDS011;51401;48.882;12.598;2023-12-20T00:34:29;13.13;;;9.32;;
64903;SDS011;51401;48.882;12.598;2023-12-20T00:36:54;13.27;;;10.60;;
64903;SDS011;51401;48.882;12.598;2023-12-20T00:39:20;12.57;;;9.65;;
64903;SDS011;51401;48.882;12.598;2023-12-20T00:41:45;12.63;;;10.20;;
64903;SDS011;51401;48.882;12.598;2023-12-20T00:44:10;12.75;;;10.18;;
64903;SDS011;51401;48.882;12.598;2023-12-20T00:46:36;12.45;;;9.75;;
64903;SDS011;51401;48.882;12.598;2023-12-20T00:49:01;12.80;;;9.65;;
64903;SDS011;51401;48.882;12.598;2023-12-20T00:51:26;13.07;;;9.60;;
64903;SDS011;51401;48.882;12.598;2023-12-20T00:53:52;13.15;;;9.85;;
64903;SDS011;51401;48.882;12.598;2023-12-20T00:56:19;11.90;;;9.50;;
64903;SDS011;51401;48.882;12.598;2023-12-20T00:58:45;12.93;;;9.30;;
64903;SDS011;51401;48.882;12.598;2023-12-20T01:01:11;11.13;;;9.85;;
64903;SDS011;51401;48.882;12.598;2023-12-20T01:03:36;16.45;;;11.13;;
64903;SDS011;51401;48.882;12.598;2023-12-20T01:06:05;13.23;;;10.18;;
64903;SDS011;51401;48.882;12.598;2023-12-20T01:08:30;12.55;;;9.98;;
64903;SDS011;51401;48.882;12.598;2023-12-20T01:10:55;13.65;;;10.80;;
64903;SDS011;51401;48.882;12.598;2023-12-20T01:13:21;15.13;;;10.98;;
64903;SDS011;51401;48.882;12.598;2023-12-20T01:15:46;14.38;;;10.85;;
64903;SDS011;51401;48.882;12.598;2023-12-20T01:18:13;13.38;;;9.88;;
64903;SDS011;51401;48.882;12.598;2023-12-20T01:20:38;13.63;;;11.20;;
64903;SDS011;51401;48.882;12.598;2023-12-20T01:23:03;13.32;;;10.27;;
64903;SDS011;51401;48.882;12.598;2023-12-20T01:25:29;13.25;;;11.07;;
64903;SDS011;51401;48.882;12.598;2023-12-20T01:27:54;13.70;;;10.60;;
64903;SDS011;51401;48.882;12.598;2023-12-20T01:30:19;16.33;;;10.93;;
64903;SDS011;51401;48.882;12.598;2023-12-20T01:32:44;14.57;;;10.55;;
64903;SDS011;51401;48.882;12.598;2023-12-20T01:35:10;18.75;;;11.18;;
64903;SDS011;51401;48.882;12.598;2023-12-20T01:37:37;16.60;;;12.07;;
64903;SDS011;51401;48.882;12.598;2023-12-20T01:40:02;15.98;;;12.23;;
64903;SDS011;51401;48.882;12.598;2023-12-20T01:42:28;14.80;;;10.40;;
64903;SDS011;51401;48.882;12.598;2023-12-20T01:44:54;14.95;;;11.13;;
64903;SDS011;51401;48.882;12.598;2023-12-20T01:47:19;14.88;;;11.48;;
64903;SDS011;51401;48.882;12.598;2023-12-20T01:49:45;16.05;;;11.77;;
64903;SDS011;51401;48.882;12.598;2023-12-20T01:52:10;12.68;;;11.18;;
64903;SDS011;51401;48.882;12.598;2023-12-20T01:54:36;14.55;;;11.40;;
64903;SDS011;51401;48.882;12.598;2023-12-20T01:57:02;16.17;;;12.52;;
64903;SDS011;51401;48.882;12.598;2023-12-20T01:59:28;14.38;;;11.70;;
64903;SDS011;51401;48.882;12.598;2023-12-20T02:01:54;16.77;;;11.15;;
64903;SDS011;51401;48.882;12.598;2023-12-20T02:04:20;14.38;;;11.32;;
64903;SDS011;51401;48.882;12.598;2023-12-20T02:06:46;14.77;;;11.82;;
64903;SDS011;51401;48.882;12.598;2023-12-20T02:09:11;17.15;;;11.88;;
64903;SDS011;51401;48.882;12.598;2023-12-20T02:11:37;16.52;;;12.05;;
64903;SDS011;51401;48.882;12.598;2023-12-20T02:14:03;16.23;;;12.00;;
64903;SDS011;51401;48.882;12.598;2023-12-20T02:16:28;15.88;;;12.20;;
64903;SDS011;51401;48.882;12.598;2023-12-20T02:18:53;13.18;;;10.60;;
64903;SDS011;51401;48.882;12.598;2023-12-20T02:21:24;14.98;;;11.20;;
64903;SDS011;51401;48.882;12.598;2023-12-20T02:23:50;15.32;;;11.70;;
64903;SDS011;51401;48.882;12.598;2023-12-20T02:26:15;15.23;;;10.40;;
64903;SDS011;51401;48.882;12.598;2023-12-20T02:28:41;13.73;;;11.18;;
64903;SDS011;51401;48.882;12.598;2023-12-20T02:31:06;17.88;;;11.98;;
64903;SDS011;51401;48.882;12.598;2023-12-20T02:33:32;14.50;;;11.68;;
64903;SDS011;51401;48.882;12.598;2023-12-20T02:35:57;11.67;;;9.93;;
64903;SDS011;51401;48.882;12.598;2023-12-20T02:38:22;14.32;;;11.13;;
64903;SDS011;51401;48.882;12.598;2023-12-20T02:40:48;17.33;;;10.57;;
64903;SDS011;51401;48.882;12.598;2023-12-20T02:43:13;16.40;;;11.80;;
64903;SDS011;51401;48.882;12.598;2023-12-20T02:45:38;14.97;;;11.73;;
64903;SDS011;51401;48.882;12.598;2023-12-20T02:48:03;14.60;;;12.18;;
64903;SDS011;51401;48.882;12.598;2023-12-20T02:50:29;15.10;;;11.40;;
64903;SDS011;51401;48.882;12.598;2023-12-20T02:52:54;18.95;;;12.52;;
64903;SDS011;51401;48.882;12.598;2023-12-20T02:55:19;14.70;;;11.45;;
64903;SDS011;51401;48.882;12.598;2023-12-20T02:57:45;13.65;;;10.77;;
64903;SDS011;51401;48.882;12.598;2023-12-20T03:00:10;13.73;;;11.07;;
64903;SDS011;51401;48.882;12.598;2023-12-20T03:02:36;15.52;;;11.52;;
64903;SDS011;51401;48.882;12.598;2023-12-20T03:05:02;15.07;;;11.60;;
64903;SDS011;51401;48.882;12.598;2023-12-20T03:07:28;14.90;;;10.85;;
64903;SDS011;51401;48.882;12.598;2023-12-20T03:09:53;15.40;;;11.23;;
64903;SDS011;51401;48.882;12.598;2023-12-20T03:12:18;15.20;;;11.88;;
64903;SDS011;51401;48.882;12.598;2023-12-20T03:14:44;15.60;;;11.25;;
64903;SDS011;51401;48.882;12.598;2023-12-20T03:17:09;14.80;;;11.00;;
64903;SDS011;51401;48.882;12.598;2023-12-20T03:19:35;15.55;;;11.85;;
64903;SDS011;51401;48.882;12.598;2023-12-20T03:22:00;13.52;;;11.63;;
64903;SDS011;51401;48.882;12.598;2023-12-20T03:24:26;17.08;;;11.27;;
64903;SDS011;51401;48.882;12.598;2023-12-20T03:26:51;16.55;;;11.90;;
64903;SDS011;51401;48.882;12.598;2023-12-20T03:29:16;14.45;;;11.05;;
64903;SDS011;51401;48.882;12.598;2023-12-20T03:31:42;13.75;;;11.23;;
64903;SDS011;51401;48.882;12.598;2023-12-20T03:34:07;15.43;;;11.77;;
64903;SDS011;51401;48.882;12.598;2023-12-20T03:36:32;13.20;;;11.15;;
64903;SDS011;51401;48.882;12.598;2023-12-20T03:38:57;15.25;;;10.88;;
64903;SDS011;51401;48.882;12.598;2023-12-20T03:41:23;13.55;;;11.20;;
64903;SDS011;51401;48.882;12.598;2023-12-20T03:43:48;16.30;;;11.98;;
64903;SDS011;51401;48.882;12.598;2023-12-20T03:46:13;13.25;;;11.13;;
64903;SDS011;51401;48.882;12.598;2023-12-20T03:48:38;18.48;;;11.50;;
64903;SDS011;51401;48.882;12.598;2023-12-20T03:51:04;14.85;;;11.35;;
64903;SDS011;51401;48.882;12.598;2023-12-20T03:53:29;15.15;;;10.73;;
64903;SDS011;51401;48.882;12.598;2023-12-20T03:55:54;14.70;;;10.57;;
64903;SDS011;51401;48.882;12.598;2023-12-20T03:58:20;13.85;;;11.05;;
64903;SDS011;51401;48.882;12.598;2023-12-20T04:00:45;13.68;;;10.63;;
64903;SDS011;51401;48.882;12.598;2023-12-20T04:03:10;14.43;;;11.75;;
64903;SDS011;51401;48.882;12.598;2023-12-20T04:05:38;15.70;;;10.52;;
64903;SDS011;51401;48.882;12.598;2023-12-20T04:08:05;14.90;;;10.95;;
64903;SDS011;51401;48.882;12.598;2023-12-20T04:10:30;13.93;;;10.35;;
64903;SDS011;51401;48.882;12.598;2023-12-20T04:12:56;14.63;;;10.77;;
64903;SDS011;51401;48.882;12.598;2023-12-20T04:15:21;14.68;;;10.68;;
64903;SDS011;51401;48.882;12.598;2023-12-20T04:17:46;15.35;;;11.95;;
64903;SDS011;51401;48.882;12.598;2023-12-20T04:20:12;14.45;;;10.18;;
64903;SDS011;51401;48.882;12.598;2023-12-20T04:22:37;14.40;;;10.20;;
64903;SDS011;51401;48.882;12.598;2023-12-20T04:25:02;14.93;;;11.13;;
64903;SDS011;51401;48.882;12.598;2023-12-20T04:27:28;16.48;;;11.07;;
64903;SDS011;51401;48.882;12.598;2023-12-20T04:29:53;13.55;;;10.60;;
64903;SDS011;51401;48.882;12.598;2023-12-20T04:32:18;12.57;;;10.30;;
64903;SDS011;51401;48.882;12.598;2023-12-20T04:34:43;14.98;;;11.07;;
64903;SDS011;51401;48.882;12.598;2023-12-20T04:37:09;17.77;;;12.18;;
64903;SDS011;51401;48.882;12.598;2023-12-20T04:39:34;18.00;;;11.90;;
64903;SDS011;51401;48.882;12.598;2023-12-20T04:41:59;14.60;;;11.50;;
64903;SDS011;51401;48.882;12.598;2023-12-20T04:44:24;16.27;;;11.38;;
64903;SDS011;51401;48.882;12.598;2023-12-20T04:46:50;12.30;;;10.73;;
64903;SDS011;51401;48.882;12.598;2023-12-20T04:49:15;12.90;;;10.25;;
64903;SDS011;51401;48.882;12.598;2023-12-20T04:51:40;14.40;;;11.45;;
64903;SDS011;51401;48.882;12.598;2023-12-20T04:54:06;14.77;;;11.27;;
64903;SDS011;51401;48.882;12.598;2023-12-20T04:56:31;16.55;;;13.48;;
64903;SDS011;51401;48.882;12.598;2023-12-20T04:58:56;15.48;;;12.32;;
64903;SDS011;51401;48.882;12.598;2023-12-20T05:01:22;14.85;;;11.27;;
64903;SDS011;51401;48.882;12.598;2023-12-20T05:03:47;14.65;;;12.30;;
64903;SDS011;51401;48.882;12.598;2023-12-20T05:06:12;16.83;;;13.68;;
64903;SDS011;51401;48.882;12.598;2023-12-20T05:08:37;18.15;;;12.80;;
64903;SDS011;51401;48.882;12.598;2023-12-20T05:11:03;17.38;;;13.10;;
64903;SDS011;51401;48.882;12.598;2023-12-20T05:13:29;14.82;;;11.82;;
64903;SDS011;51401;48.882;12.598;2023-12-20T05:15:54;16.95;;;11.80;;
64903;SDS011;51401;48.882;12.598;2023-12-20T05:18:22;12.80;;;11.02;;
64903;SDS011;51401;48.882;12.598;2023-12-20T05:20:49;15.95;;;11.85;;
64903;SDS011;51401;48.882;12.598;2023-12-20T05:23:15;17.52;;;13.18;;
64903;SDS011;51401;48.882;12.598;2023-12-20T05:25:40;18.05;;;13.93;;
64903;SDS011;51401;48.882;12.598;2023-12-20T05:28:06;16.75;;;12.45;;
64903;SDS011;51401;48.882;12.598;2023-12-20T05:30:31;15.55;;;12.07;;
64903;SDS011;51401;48.882;12.598;2023-12-20T05:32:56;18.95;;;12.35;;
64903;SDS011;51401;48.882;12.598;2023-12-20T05:35:22;18.70;;;11.98;;
64903;SDS011;51401;48.882;12.598;2023-12-20T05:37:48;15.15;;;12.48;;
64903;SDS011;51401;48.882;12.598;2023-12-20T05:40:13;14.75;;;12.20;;
64903;SDS011;51401;48.882;12.598;2023-12-20T05:42:39;14.15;;;11.43;;
64903;SDS011;51401;48.882;12.598;2023-12-20T05:45:04;12.25;;;9.50;;
64903;SDS011;51401;48.882;12.598;2023-12-20T05:47:30;9.95;;;7.65;;
64903;SDS011;51401;48.882;12.598;2023-12-20T05:49:56;8.57;;;7.28;;
64903;SDS011;51401;48.882;12.598;2023-12-20T05:52:21;10.30;;;7.88;;
64903;SDS011;51401;48.882;12.598;2023-12-20T05:54:47;7.70;;;6.78;;
64903;SDS011;51401;48.882;12.598;2023-12-20T05:57:12;7.93;;;6.15;;
64903;SDS011;51401;48.882;12.598;2023-12-20T05:59:37;8.90;;;6.05;;
64903;SDS011;51401;48.882;12.598;2023-12-20T06:02:03;6.60;;;5.32;;
64903;SDS011;51401;48.882;12.598;2023-12-20T06:04:29;7.75;;;5.68;;
64903;SDS011;51401;48.882;12.598;2023-12-20T06:06:55;10.27;;;6.13;;
64903;SDS011;51401;48.882;12.598;2023-12-20T06:09:20;6.35;;;5.10;;
64903;SDS011;51401;48.882;12.598;2023-12-20T06:11:46;6.95;;;5.97;;
64903;SDS011;51401;48.882;12.598;2023-12-20T06:14:11;7.82;;;5.53;;
64903;SDS011;51401;48.882;12.598;2023-12-20T06:16:36;5.75;;;4.80;;
64903;SDS011;51401;48.882;12.598;2023-12-20T06:19:02;6.93;;;5.03;;
64903;SDS011;51401;48.882;12.598;2023-12-20T06:21:27;7.70;;;5.88;;
64903;SDS011;51401;48.882;12.598;2023-12-20T06:23:52;7.75;;;4.82;;
64903;SDS011;51401;48.882;12.598;2023-12-20T06:26:17;8.35;;;5.28;;
64903;SDS011;51401;48.882;12.598;2023-12-20T06:28:43;6.30;;;4.82;;
64903;SDS011;51401;48.882;12.598;2023-12-20T06:31:08;6.45;;;4.53;;
64903;SDS011;51401;48.882;12.598;2023-12-20T06:33:34;7.38;;;4.57;;
64903;SDS011;51401;48.882;12.598;2023-12-20T06:35:59;6.18;;;4.88;;
64903;SDS011;51401;48.882;12.598;2023-12-20T06:38:24;6.38;;;4.40;;
64903;SDS011;51401;48.882;12.598;2023-12-20T06:40:50;5.78;;;4.63;;
64903;SDS011;51401;48.882;12.598;2023-12-20T06:43:15;6.15;;;4.20;;
64903;SDS011;51401;48.882;12.598;2023-12-20T06:45:40;6.40;;;4.75;;
64903;SDS011;51401;48.882;12.598;2023-12-20T06:48:06;7.28;;;4.90;;
64903;SDS011;51401;48.882;12.598;2023-12-20T06:50:31;8.57;;;5.28;;
64903;SDS011;51401;48.882;12.598;2023-12-20T06:52:56;5.93;;;4.50;;
64903;SDS011;51401;48.882;12.598;2023-12-20T06:55:22;5.93;;;5.03;;
64903;SDS011;51401;48.882;12.598;2023-12-20T06:57:48;10.30;;;4.95;;
64903;SDS011;51401;48.882;12.598;2023-12-20T07:00:13;5.28;;;4.47;;
64903;SDS011;51401;48.882;12.598;2023-12-20T07:02:39;7.40;;;5.15;;
64903;SDS011;51401;48.882;12.598;2023-12-20T07:05:04;7.37;;;4.97;;
64903;SDS011;51401;48.882;12.598;2023-12-20T07:07:30;6.30;;;4.82;;
64903;SDS011;51401;48.882;12.598;2023-12-20T07:09:55;6.47;;;5.13;;
64903;SDS011;51401;48.882;12.598;2023-12-20T07:12:21;6.53;;;4.85;;
64903;SDS011;51401;48.882;12.598;2023-12-20T07:14:46;7.53;;;5.47;;
64903;SDS011;51401;48.882;12.598;2023-12-20T07:17:12;5.70;;;4.40;;
64903;SDS011;51401;48.882;12.598;2023-12-20T07:19:39;7.13;;;5.28;;
64903;SDS011;51401;48.882;12.598;2023-12-20T07:22:05;6.70;;;5.70;;
64903;SDS011;51401;48.882;12.598;2023-12-20T07:24:31;7.50;;;5.57;;
64903;SDS011;51401;48.882;12.598;2023-12-20T07:26:57;6.30;;;5.43;;
64903;SDS011;51401;48.882;12.598;2023-12-20T07:29:24;6.07;;;5.13;;
64903;SDS011;51401;48.882;12.598;2023-12-20T07:31:49;4.90;;;4.38;;
64903;SDS011;51401;48.882;12.598;2023-12-20T07:34:17;7.88;;;6.32;;
64903;SDS011;51401;48.882;12.598;2023-12-20T07:36:42;6.13;;;4.93;;
64903;SDS011;51401;48.882;12.598;2023-12-20T07:39:07;7.18;;;5.32;;
64903;SDS011;51401;48.882;12.598;2023-12-20T07:41:32;8.18;;;5.53;;
64903;SDS011;51401;48.882;12.598;2023-12-20T07:43:58;6.10;;;5.05;;
64903;SDS011;51401;48.882;12.598;2023-12-20T07:46:24;7.15;;;5.50;;
64903;SDS011;51401;48.882;12.598;2023-12-20T07:48:49;6.72;;;4.95;;
64903;SDS011;51401;48.882;12.598;2023-12-20T07:51:14;7.15;;;5.32;;
64903;SDS011;51401;48.882;12.598;2023-12-20T07:53:39;6.55;;;5.32;;
64903;SDS011;51401;48.882;12.598;2023-12-20T07:56:15;7.28;;;4.80;;
64903;SDS011;51401;48.882;12.598;2023-12-20T07:58:43;6.53;;;5.03;;
64903;SDS011;51401;48.882;12.598;2023-12-20T08:01:10;7.90;;;5.97;;
64903;SDS011;51401;48.882;12.598;2023-12-20T08:03:36;8.20;;;5.55;;
64903;SDS011;51401;48.882;12.598;2023-12-20T08:06:01;6.78;;;4.90;;
64903;SDS011;51401;48.882;12.598;2023-12-20T08:08:27;7.28;;;5.20;;
64903;SDS011;51401;48.882;12.598;2023-12-20T08:10:53;6.03;;;5.15;;
64903;SDS011;51401;48.882;12.598;2023-12-20T08:13:18;5.65;;;4.63;;
64903;SDS011;51401;48.882;12.598;2023-12-20T08:15:43;5.75;;;4.53;;
64903;SDS011;51401;48.882;12.598;2023-12-20T08:18:09;5.83;;;4.70;;
64903;SDS011;51401;48.882;12.598;2023-12-20T08:20:34;5.25;;;4.25;;
64903;SDS011;51401;48.882;12.598;2023-12-20T08:22:59;4.82;;;3.92;;
64903;SDS011;51401;48.882;12.598;2023-12-20T08:25:25;5.75;;;4.10;;
64903;SDS011;51401;48.882;12.598;2023-12-20T08:27:50;4.97;;;4.13;;
64903;SDS011;51401;48.882;12.598;2023-12-20T08:30:18;4.90;;;4.10;;
64903;SDS011;51401;48.882;12.598;2023-12-20T08:32:46;5.90;;;4.30;;
64903;SDS011;51401;48.882;12.598;2023-12-20T08:35:13;5.50;;;4.25;;
64903;SDS011;51401;48.882;12.598;2023-12-20T08:37:38;8.18;;;4.50;;
64903;SDS011;51401;48.882;12.598;2023-12-20T08:40:03;5.70;;;4.03;;
64903;SDS011;51401;48.882;12.598;2023-12-20T08:42:29;6.93;;;4.07;;
64903;SDS011;51401;48.882;12.598;2023-12-20T08:44:56;4.72;;;3.97;;
64903;SDS011;51401;48.882;12.598;2023-12-20T08:47:23;4.47;;;3.72;;
64903;SDS011;51401;48.882;12.598;2023-12-20T08:49:48;5.22;;;3.78;;
64903;SDS011;51401;48.882;12.598;2023-12-20T08:52:13;4.68;;;3.38;;
64903;SDS011;51401;48.882;12.598;2023-12-20T08:54:39;9.88;;;7.72;;
64903;SDS011;51401;48.882;12.598;2023-12-20T08:57:04;11.23;;;8.88;;
64903;SDS011;51401;48.882;12.598;2023-12-20T08:59:31;6.75;;;4.30;;
64903;SDS011;51401;48.882;12.598;2023-12-20T09:01:57;8.25;;;6.25;;
64903;SDS011;51401;48.882;12.598;2023-12-20T09:04:22;17.42;;;13.15;;
64903;SDS011;51401;48.882;12.598;2023-12-20T09:06:47;5.82;;;4.65;;
64903;SDS011;51401;48.882;12.598;2023-12-20T09:09:12;6.43;;;3.63;;
64903;SDS011;51401;48.882;12.598;2023-12-20T09:11:41;4.97;;;3.75;;
64903;SDS011;51401;48.882;12.598;2023-12-20T09:14:07;5.55;;;3.70;;
64903;SDS011;51401;48.882;12.598;2023-12-20T09:16:32;5.15;;;3.55;;
64903;SDS011;51401;48.882;12.598;2023-12-20T09:18:57;5.95;;;3.58;;
64903;SDS011;51401;48.882;12.598;2023-12-20T09:21:23;4.03;;;3.10;;
64903;SDS011;51401;48.882;12.598;2023-12-20T09:23:48;3.50;;;2.80;;
64903;SDS011;51401;48.882;12.598;2023-12-20T09:26:14;4.10;;;3.17;;
64903;SDS011;51401;48.882;12.598;2023-12-20T09:28:39;3.60;;;2.75;;
64903;SDS011;51401;48.882;12.598;2023-12-20T09:31:05;4.00;;;2.67;;
64903;SDS011;51401;48.882;12.598;2023-12-20T09:33:34;3.00;;;2.60;;
64903;SDS011;51401;48.882;12.598;2023-12-20T09:36:00;3.50;;;2.88;;
64903;SDS011;51401;48.882;12.598;2023-12-20T09:38:25;3.17;;;2.67;;
64903;SDS011;51401;48.882;12.598;2023-12-20T09:40:50;2.97;;;2.30;;
64903;SDS011;51401;48.882;12.598;2023-12-20T09:43:17;2.55;;;1.85;;
64903;SDS011;51401;48.882;12.598;2023-12-20T09:45:48;3.22;;;2.00;;
64903;SDS011;51401;48.882;12.598;2023-12-20T09:48:18;2.15;;;1.83;;
64903;SDS011;51401;48.882;12.598;2023-12-20T09:50:44;2.50;;;2.00;;
64903;SDS011;51401;48.882;12.598;2023-12-20T09:53:09;2.67;;;1.90;;
64903;SDS011;51401;48.882;12.598;2023-12-20T09:55:39;2.42;;;1.90;;
64903;SDS011;51401;48.882;12.598;2023-12-20T09:58:07;2.78;;;1.90;;
64903;SDS011;51401;48.882;12.598;2023-12-20T10:00:33;2.42;;;1.83;;
64903;SDS011;51401;48.882;12.598;2023-12-20T10:03:00;2.72;;;2.15;;
64903;SDS011;51401;48.882;12.598;2023-12-20T10:05:27;2.60;;;2.08;;
64903;SDS011;51401;48.882;12.598;2023-12-20T10:10:22;2.40;;;2.20;;
64903;SDS011;51401;48.882;12.598;2023-12-20T10:15:33;2.03;;;1.50;;
64903;SDS011;51401;48.882;12.598;2023-12-20T10:18:00;4.03;;;2.28;;
64903;SDS011;51401;48.882;12.598;2023-12-20T10:20:26;2.67;;;2.10;;
64903;SDS011;51401;48.882;12.598;2023-12-20T10:22:53;2.80;;;2.30;;
64903;SDS011;51401;48.882;12.598;2023-12-20T10:25:20;2.78;;;2.20;;
64903;SDS011;51401;48.882;12.598;2023-12-20T10:27:46;3.13;;;2.10;;
64903;SDS011;51401;48.882;12.598;2023-12-20T10:30:12;3.05;;;1.98;;
64903;SDS011;51401;48.882;12.598;2023-12-20T10:32:41;2.70;;;2.38;;
64903;SDS011;51401;48.882;12.598;2023-12-20T10:35:06;3.58;;;2.60;;
64903;SDS011;51401;48.882;12.598;2023-12-20T10:37:36;2.67;;;2.00;;
64903;SDS011;51401;48.882;12.598;2023-12-20T10:40:03;2.78;;;2.53;;
64903;SDS011;51401;48.882;12.598;2023-12-20T10:42:30;2.67;;;2.45;;
64903;SDS011;51401;48.882;12.598;2023-12-20T10:44:58;3.00;;;2.42;;
64903;SDS011;51401;48.882;12.598;2023-12-20T10:47:25;3.05;;;2.42;;
64903;SDS011;51401;48.882;12.598;2023-12-20T10:49:51;2.90;;;2.42;;
64903;SDS011;51401;48.882;12.598;2023-12-20T10:52:17;3.42;;;2.50;;
64903;SDS011;51401;48.882;12.598;2023-12-20T10:54:43;3.67;;;2.45;;
64903;SDS011;51401;48.882;12.598;2023-12-20T10:57:09;4.40;;;3.28;;
64903;SDS011;51401;48.882;12.598;2023-12-20T10:59:38;3.28;;;2.92;;
64903;SDS011;51401;48.882;12.598;2023-12-20T11:02:04;2.95;;;2.40;;
64903;SDS011;51401;48.882;12.598;2023-12-20T11:04:55;2.45;;;2.25;;
64903;SDS011;51401;48.882;12.598;2023-12-20T11:07:32;2.92;;;2.33;;
64903;SDS011;51401;48.882;12.598;2023-12-20T11:10:03;2.40;;;1.92;;
64903;SDS011;51401;48.882;12.598;2023-12-20T11:12:41;3.15;;;2.42;;
64903;SDS011;51401;48.882;12.598;2023-12-20T11:15:12;2.38;;;2.15;;
64903;SDS011;51401;48.882;12.598;2023-12-20T11:17:39;2.95;;;2.60;;
64903;SDS011;51401;48.882;12.598;2023-12-20T11:20:05;2.70;;;2.50;;
64903;SDS011;51401;48.882;12.598;2023-12-20T11:22:33;2.58;;;2.38;;
64903;SDS011;51401;48.882;12.598;2023-12-20T11:25:09;2.40;;;2.20;;
64903;SDS011;51401;48.882;12.598;2023-12-20T11:27:36;2.28;;;1.85;;
64903;SDS011;51401;48.882;12.598;2023-12-20T11:30:05;2.20;;;1.90;;
64903;SDS011;51401;48.882;12.598;2023-12-20T11:32:35;2.10;;;1.77;;
64903;SDS011;51401;48.882;12.598;2023-12-20T11:35:16;2.30;;;2.10;;
64903;SDS011;51401;48.882;12.598;2023-12-20T11:37:43;2.58;;;1.90;;
64903;SDS011;51401;48.882;12.598;2023-12-20T11:40:13;1.63;;;1.40;;
64903;SDS011;51401;48.882;12.598;2023-12-20T11:42:41;2.42;;;1.65;;
64903;SDS011;51401;48.882;12.598;2023-12-20T11:45:08;1.98;;;1.70;;
64903;SDS011;51401;48.882;12.598;2023-12-20T11:47:34;2.67;;;1.90;;
64903;SDS011;51401;48.882;12.598;2023-12-20T11:50:00;1.83;;;1.48;;
64903;SDS011;51401;48.882;12.598;2023-12-20T11:52:28;2.85;;;1.73;;
64903;SDS011;51401;48.882;12.598;2023-12-20T11:54:53;1.70;;;1.60;;
64903;SDS011;51401;48.882;12.598;2023-12-20T11:57:19;2.40;;;1.65;;
64903;SDS011;51401;48.882;12.598;2023-12-20T11:59:44;2.67;;;1.70;;
64903;SDS011;51401;48.882;12.598;2023-12-20T12:02:11;3.42;;;1.45;;
64903;SDS011;51401;48.882;12.598;2023-12-20T12:04:37;1.90;;;1.27;;
64903;SDS011;51401;48.882;12.598;2023-12-20T12:07:02;2.72;;;1.50;;
64903;SDS011;51401;48.882;12.598;2023-12-20T12:09:28;1.20;;;1.05;;
64903;SDS011;51401;48.882;12.598;2023-12-20T12:11:53;1.10;;;1.00;;
64903;SDS011;51401;48.882;12.598;2023-12-20T12:14:19;2.50;;;1.55;;
64903;SDS011;51401;48.882;12.598;2023-12-20T12:16:45;2.13;;;1.70;;
64903;SDS011;51401;48.882;12.598;2023-12-20T12:19:29;2.17;;;1.30;;
64903;SDS011;51401;48.882;12.598;2023-12-20T12:24:42;4.18;;;1.60;;
64903;SDS011;51401;48.882;12.598;2023-12-20T12:27:07;2.67;;;1.35;;
64903;SDS011;51401;48.882;12.598;2023-12-20T12:29:33;1.48;;;1.10;;
64903;SDS011;51401;48.882;12.598;2023-12-20T12:31:59;1.98;;;1.20;;
64903;SDS011;51401;48.882;12.598;2023-12-20T12:34:26;4.30;;;1.67;;
64903;SDS011;51401;48.882;12.598;2023-12-20T12:36:52;2.45;;;1.55;;
64903;SDS011;51401;48.882;12.598;2023-12-20T12:39:18;2.17;;;1.52;;
64903;SDS011;51401;48.882;12.598;2023-12-20T12:41:43;3.08;;;1.90;;
64903;SDS011;51401;48.882;12.598;2023-12-20T12:44:09;2.72;;;1.45;;
64903;SDS011;51401;48.882;12.598;2023-12-20T12:46:34;1.95;;;1.50;;
64903;SDS011;51401;48.882;12.598;2023-12-20T12:48:59;1.92;;;1.30;;
64903;SDS011;51401;48.882;12.598;2023-12-20T12:51:25;2.30;;;1.45;;
64903;SDS011;51401;48.882;12.598;2023-12-20T12:53:50;2.17;;;1.20;;
64903;SDS011;51401;48.882;12.598;2023-12-20T12:56:15;1.90;;;1.20;;
64903;SDS011;51401;48.882;12.598;2023-12-20T12:58:42;2.67;;;1.30;;
64903;SDS011;51401;48.882;12.598;2023-12-20T13:01:07;2.25;;;1.33;;
64903;SDS011;51401;48.882;12.598;2023-12-20T13:03:33;4.05;;;1.20;;
64903;SDS011;51401;48.882;12.598;2023-12-20T13:05:59;2.38;;;1.20;;
64903;SDS011;51401;48.882;12.598;2023-12-20T13:08:24;4.05;;;1.85;;
64903;SDS011;51401;48.882;12.598;2023-12-20T13:10:50;2.42;;;1.50;;
64903;SDS011;51401;48.882;12.598;2023-12-20T13:13:15;2.10;;;1.42;;
64903;SDS011;51401;48.882;12.598;2023-12-20T13:15:40;2.00;;;1.30;;
64903;SDS011;51401;48.882;12.598;2023-12-20T13:18:06;6.88;;;1.30;;
64903;SDS011;51401;48.882;12.598;2023-12-20T13:20:31;7.65;;;1.75;;
64903;SDS011;51401;48.882;12.598;2023-12-20T13:22:58;1.88;;;0.88;;
64903;SDS011;51401;48.882;12.598;2023-12-20T13:25:23;3.03;;;1.17;;
64903;SDS011;51401;48.882;12.598;2023-12-20T13:27:49;2.63;;;1.13;;
64903;SDS011;51401;48.882;12.598;2023-12-20T13:30:15;2.42;;;1.02;;
64903;SDS011;51401;48.882;12.598;2023-12-20T13:32:41;2.75;;;1.23;;
64903;SDS011;51401;48.882;12.598;2023-12-20T13:35:06;4.87;;;1.00;;
64903;SDS011;51401;48.882;12.598;2023-12-20T13:37:32;1.30;;;1.02;;
64903;SDS011;51401;48.882;12.598;2023-12-20T13:39:57;1.38;;;0.82;;
64903;SDS011;51401;48.882;12.598;2023-12-20T13:42:22;1.63;;;0.87;;
64903;SDS011;51401;48.882;12.598;2023-12-20T13:44:48;1.23;;;1.00;;
64903;SDS011;51401;48.882;12.598;2023-12-20T13:47:13;2.20;;;1.20;;
64903;SDS011;51401;48.882;12.598;2023-12-20T13:49:38;3.47;;;0.95;;
64903;SDS011;51401;48.882;12.598;2023-12-20T13:52:03;3.57;;;1.00;;
64903;SDS011;51401;48.882;12.598;2023-12-20T13:54:29;2.08;;;1.15;;
64903;SDS011;51401;48.882;12.598;2023-12-20T13:56:54;2.42;;;1.70;;
64903;SDS011;51401;48.882;12.598;2023-12-20T13:59:20;3.13;;;1.13;;
64903;SDS011;51401;48.882;12.598;2023-12-20T14:01:45;2.47;;;1.15;;
64903;SDS011;51401;48.882;12.598;2023-12-20T14:04:10;2.93;;;1.13;;
64903;SDS011;51401;48.882;12.598;2023-12-20T14:06:36;1.65;;;1.08;;
64903;SDS011;51401;48.882;12.598;2023-12-20T14:09:02;2.28;;;1.15;;
64903;SDS011;51401;48.882;12.598;2023-12-20T14:11:28;1.55;;;0.90;;
64903;SDS011;51401;48.882;12.598;2023-12-20T14:13:53;2.03;;;1.25;;
64903;SDS011;51401;48.882;12.598;2023-12-20T14:16:22;1.33;;;1.23;;
64903;SDS011;51401;48.882;12.598;2023-12-20T14:18:48;4.78;;;1.05;;
64903;SDS011;51401;48.882;12.598;2023-12-20T14:21:14;5.18;;;1.35;;
64903;SDS011;51401;48.882;12.598;2023-12-20T14:23:39;3.65;;;1.50;;